Frogsboro, North Carolina
Current Conditions -  °F | °C
As of 5:53 AM on Thursday 23 Oct 2014 (Local Time) from KDAN Reporting Station
Clear Clear  
Wind Chill: 45°   Ceiling: Unl
Heat Index: 47°   Visibility: 10mi
Dew Point: 39°   Wind: 5mph
Humidity: 74%   Direction: 220°SW
Pressure: 30.02"   Gusts: NA
Location:  36.4125°N, 79.1919°W
Report Text: KDAN 230953Z AUTO 22004KT 10SM CLR 08/04 A3002 RMK AO2 SLP158 T00830039
Loading
Personal Weather Stations






























Interactive Weather Map
Tropical Storm Tracking
New forecast layout! Learn more

10-Day Weather Forecast

Advertisements
Track Severe Weather on mobile